Time,TemperatureF,DewpointF,PressureIn,WindDirection,WindDirectionDegrees,WindSpeedMPH,WindSpeedGustMPH,Humidity,HourlyPrecipIn,Conditions,Clouds,dailyrainin,SoftwareType,DateUTC
2013-01-21 00:02:00,14.3,10.4,30.66,WSW,256,2.0,2.0,84,0.00,,,0.00,Wunderground v.1.15,2013-01-21 08:02:00,
2013-01-21 00:07:00,14.5,10.8,30.66,WSW,257,1.0,2.0,85,0.00,,,0.00,Wunderground v.1.15,2013-01-21 08:07:00,
2013-01-21 00:13:00,14.7,11.0,30.66,WSW,257,1.0,1.0,85,0.00,,,0.00,Wunderground v.1.15,2013-01-21 08:13:00,
2013-01-21 00:19:00,14.5,10.5,30.66,WSW,257,1.0,1.0,84,0.00,,,0.00,Wunderground v.1.15,2013-01-21 08:19:00,
2013-01-21 00:24:00,14.1,10.2,30.66,WSW,257,1.0,1.0,84,0.00,,,0.00,Wunderground v.1.15,2013-01-21 08:24:00,
2013-01-21 00:29:00,14.2,10.5,30.66,WSW,257,0.0,1.0,85,0.00,,,0.00,Wunderground v.1.15,2013-01-21 08:29:00,
2013-01-21 00:35:00,14.3,10.6,30.66,WSW,256,0.0,0.0,85,0.00,,,0.00,Wunderground v.1.15,2013-01-21 08:35:00,
2013-01-21 00:41:00,14.3,10.9,30.66,WSW,243,0.0,1.0,86,0.00,,,0.00,Wunderground v.1.15,2013-01-21 08:41:00,
2013-01-21 00:46:00,14.1,10.4,30.66,WSW,243,1.0,1.0,85,0.00,,,0.00,Wunderground v.1.15,2013-01-21 08:46:00,
2013-01-21 00:52:00,14.0,10.6,30.65,SW,236,1.0,1.0,86,0.00,,,0.00,Wunderground v.1.15,2013-01-21 08:52:00,
2013-01-21 00:58:00,13.9,10.5,30.65,SW,225,1.0,2.0,86,0.00,,,0.00,Wunderground v.1.15,2013-01-21 08:58:00,
2013-01-21 01:03:00,14.0,10.6,30.65,SW,219,1.0,2.0,86,0.00,,,0.00,Wunderground v.1.15,2013-01-21 09:03:00,
2013-01-21 01:08:00,13.9,10.5,30.65,SW,223,2.0,3.0,86,0.00,,,0.00,Wunderground v.1.15,2013-01-21 09:08:00,
2013-01-21 01:14:00,13.7,10.3,30.65,SW,226,3.0,4.0,86,0.00,,,0.00,Wunderground v.1.15,2013-01-21 09:14:00,
2013-01-21 01:20:00,13.7,10.5,30.65,SW,219,2.0,2.0,87,0.00,,,0.00,Wunderground v.1.15,2013-01-21 09:20:00,
2013-01-21 01:25:00,13.8,10.6,30.65,SW,224,2.0,3.0,87,0.00,,,0.00,Wunderground v.1.15,2013-01-21 09:25:00,
2013-01-21 01:30:00,13.8,10.6,30.65,SW,219,3.0,3.0,87,0.00,,,0.00,Wunderground v.1.15,2013-01-21 09:30:00,
2013-01-21 01:36:00,14.3,11.4,30.65,SW,221,4.0,4.0,88,0.00,,,0.00,Wunderground v.1.15,2013-01-21 09:36:00,
2013-01-21 01:42:00,14.1,10.9,30.65,SW,227,3.0,3.0,87,0.00,,,0.00,Wunderground v.1.15,2013-01-21 09:42:00,
2013-01-21 01:47:00,14.1,10.9,30.65,SW,232,2.0,3.0,87,0.00,,,0.00,Wunderground v.1.15,2013-01-21 09:47:00,
2013-01-21 01:52:00,14.3,11.1,30.65,WSW,238,2.0,2.0,87,0.00,,,0.00,Wunderground v.1.15,2013-01-21 09:52:00,
2013-01-21 01:58:00,14.5,11.6,30.65,SW,231,1.0,2.0,88,0.00,,,0.00,Wunderground v.1.15,2013-01-21 09:58:00,
2013-01-21 02:04:00,14.8,11.9,30.65,SW,216,2.0,3.0,88,0.00,,,0.00,Wunderground v.1.15,2013-01-21 10:04:00,
2013-01-21 02:10:00,14.7,11.8,30.65,SW,217,3.0,3.0,88,0.00,,,0.00,Wunderground v.1.15,2013-01-21 10:10:00,
2013-01-21 02:15:00,14.5,11.3,30.65,SW,219,3.0,4.0,87,0.00,,,0.00,Wunderground v.1.15,2013-01-21 10:15:00,
2013-01-21 02:21:00,14.4,11.5,30.65,SW,222,2.0,3.0,88,0.00,,,0.00,Wunderground v.1.15,2013-01-21 10:21:00,
2013-01-21 02:26:00,14.7,12.0,30.65,SW,220,3.0,3.0,89,0.00,,,0.00,Wunderground v.1.15,2013-01-21 10:26:00,
2013-01-21 02:32:00,14.7,11.8,30.65,SW,221,2.0,3.0,88,0.00,,,0.00,Wunderground v.1.15,2013-01-21 10:32:00,
2013-01-21 02:38:00,14.4,11.2,30.65,SW,232,2.0,3.0,87,0.00,,,0.00,Wunderground v.1.15,2013-01-21 10:38:00,
2013-01-21 02:43:00,14.2,11.3,30.65,WSW,244,2.0,3.0,88,0.00,,,0.00,Wunderground v.1.15,2013-01-21 10:43:00,
2013-01-21 02:49:00,14.0,11.1,30.65,WSW,240,2.0,3.0,88,0.00,,,0.00,Wunderground v.1.15,2013-01-21 10:49:00,
2013-01-21 02:54:00,13.9,11.0,30.65,SW,234,2.0,2.0,88,0.00,,,0.00,Wunderground v.1.15,2013-01-21 10:54:00,
2013-01-21 03:00:00,13.9,11.3,30.65,SW,224,2.0,2.0,89,0.00,,,0.00,Wunderground v.1.15,2013-01-21 11:00:00,
2013-01-21 03:06:00,13.9,11.3,30.65,SW,219,2.0,2.0,89,0.00,,,0.00,Wunderground v.1.15,2013-01-21 11:06:00,
2013-01-21 03:12:00,14.0,11.4,30.65,SW,215,2.0,2.0,89,0.00,,,0.00,Wunderground v.1.15,2013-01-21 11:12:00,
2013-01-21 03:17:00,14.1,11.5,30.65,SW,219,2.0,3.0,89,0.00,,,0.00,Wunderground v.1.15,2013-01-21 11:17:00,
2013-01-21 03:22:00,14.3,11.7,30.65,SW,217,2.0,2.0,89,0.00,,,0.00,Wunderground v.1.15,2013-01-21 11:22:00,
2013-01-21 03:28:00,14.1,11.2,30.65,SW,224,1.0,2.0,88,0.00,,,0.00,Wunderground v.1.15,2013-01-21 11:28:00,
2013-01-21 03:34:00,14.1,11.5,30.65,SW,214,1.0,2.0,89,0.00,,,0.00,Wunderground v.1.15,2013-01-21 11:34:00,
2013-01-21 03:40:00,13.6,11.0,30.64,SW,216,1.0,1.0,89,0.00,,,0.00,Wunderground v.1.15,2013-01-21 11:40:00,
2013-01-21 03:46:00,13.6,11.0,30.64,SW,216,1.0,1.0,89,0.00,,,0.00,Wunderground v.1.15,2013-01-21 11:46:00,
2013-01-21 03:51:00,-999.9,-99.9,30.64,North,32767,-999.0,0.0,255,-99.99,,,0.00,Wunderground v.1.15,2013-01-21 11:51:00,
2013-01-21 03:57:00,-999.9,-99.9,30.63,North,32767,-999.0,0.0,255,-99.99,,,0.00,Wunderground v.1.15,2013-01-21 11:57:00,
2013-01-21 04:02:00,-999.9,-99.9,30.63,North,32767,-999.0,0.0,255,-99.99,,,0.00,Wunderground v.1.15,2013-01-21 12:02:00,
2013-01-21 04:07:00,-999.9,-99.9,30.63,North,32767,-999.0,0.0,255,-99.99,,,0.00,Wunderground v.1.15,2013-01-21 12:07:00,
2013-01-21 04:12:00,-999.9,-99.9,30.63,North,32767,-999.0,0.0,255,-99.99,,,0.00,Wunderground v.1.15,2013-01-21 12:12:00,
2013-01-21 04:18:00,-999.9,-99.9,30.62,North,32767,-999.0,0.0,255,-99.99,,,0.00,Wunderground v.1.15,2013-01-21 12:18:00,
2013-01-21 04:23:00,-999.9,-99.9,30.62,North,32767,-999.0,0.0,255,-99.99,,,0.00,Wunderground v.1.15,2013-01-21 12:23:00,
2013-01-21 04:29:00,-999.9,-99.9,30.62,North,32767,-999.0,0.0,255,-99.99,,,0.00,Wunderground v.1.15,2013-01-21 12:29:00,
2013-01-21 04:34:00,-999.9,-99.9,30.62,North,32767,-999.0,0.0,255,-99.99,,,0.00,Wunderground v.1.15,2013-01-21 12:34:00,
2013-01-21 04:39:00,-999.9,-99.9,30.62,North,32767,-999.0,0.0,255,-99.99,,,0.00,Wunderground v.1.15,2013-01-21 12:39:00,
2013-01-21 04:45:00,-999.9,-99.9,30.62,North,32767,-999.0,0.0,255,-99.99,,,0.00,Wunderground v.1.15,2013-01-21 12:45:00,
2013-01-21 04:50:00,-999.9,-99.9,30.62,North,32767,-999.0,0.0,255,-99.99,,,0.00,Wunderground v.1.15,2013-01-21 12:50:00,
2013-01-21 04:56:00,-999.9,-99.9,30.62,North,32767,-999.0,0.0,255,-99.99,,,0.00,Wunderground v.1.15,2013-01-21 12:56:00,
2013-01-21 05:02:00,-999.9,-99.9,30.62,North,32767,-999.0,0.0,255,-99.99,,,0.00,Wunderground v.1.15,2013-01-21 13:02:00,
2013-01-21 05:08:00,-999.9,-99.9,30.62,North,32767,-999.0,0.0,255,-99.99,,,0.00,Wunderground v.1.15,2013-01-21 13:08:00,
2013-01-21 05:14:00,-999.9,-99.9,30.61,North,32767,-999.0,0.0,255,-99.99,,,0.00,Wunderground v.1.15,2013-01-21 13:14:00,
2013-01-21 05:20:00,-999.9,-99.9,30.61,North,32767,-999.0,0.0,255,-99.99,,,0.00,Wunderground v.1.15,2013-01-21 13:20:00,
2013-01-21 05:26:00,-999.9,-99.9,30.61,North,32767,-999.0,0.0,255,-99.99,,,0.00,Wunderground v.1.15,2013-01-21 13:26:00,
2013-01-21 05:31:00,-999.9,-99.9,30.60,North,32767,-999.0,0.0,255,-99.99,,,0.00,Wunderground v.1.15,2013-01-21 13:31:00,
2013-01-21 05:36:00,-999.9,-99.9,30.60,North,32767,-999.0,0.0,255,-99.99,,,0.00,Wunderground v.1.15,2013-01-21 13:36:00,
2013-01-21 05:42:00,-999.9,-99.9,30.60,North,32767,-999.0,0.0,255,-99.99,,,0.00,Wunderground v.1.15,2013-01-21 13:42:00,
2013-01-21 05:48:00,-999.9,-99.9,30.60,North,32767,-999.0,0.0,255,-99.99,,,0.00,Wunderground v.1.15,2013-01-21 13:48:00,
2013-01-21 05:54:00,-999.9,-99.9,30.60,North,32767,-999.0,0.0,255,-99.99,,,0.00,Wunderground v.1.15,2013-01-21 13:54:00,
2013-01-21 06:00:00,-999.9,-99.9,30.60,North,32767,-999.0,0.0,255,-99.99,,,0.00,Wunderground v.1.15,2013-01-21 14:00:00,
2013-01-21 06:06:00,-999.9,-99.9,30.60,North,32767,-999.0,0.0,255,-99.99,,,0.00,Wunderground v.1.15,2013-01-21 14:06:00,
2013-01-21 06:13:00,-999.9,-99.9,30.60,North,32767,-999.0,0.0,255,-99.99,,,0.00,Wunderground v.1.15,2013-01-21 14:13:00,
2013-01-21 06:19:00,-999.9,-99.9,30.60,North,32767,-999.0,0.0,255,-99.99,,,0.00,Wunderground v.1.15,2013-01-21 14:19:00,
2013-01-21 06:25:00,-999.9,-99.9,30.60,North,32767,-999.0,0.0,255,-99.99,,,0.00,Wunderground v.1.15,2013-01-21 14:25:00,
2013-01-21 06:31:00,-999.9,-99.9,30.60,North,32767,-999.0,0.0,255,-99.99,,,0.00,Wunderground v.1.15,2013-01-21 14:31:00,
2013-01-21 06:37:00,-999.9,-99.9,30.60,North,32767,-999.0,0.0,255,-99.99,,,0.00,Wunderground v.1.15,2013-01-21 14:37:00,
2013-01-21 06:43:00,-999.9,-99.9,30.59,North,32767,-999.0,0.0,255,-99.99,,,0.00,Wunderground v.1.15,2013-01-21 14:43:00,
2013-01-21 06:49:00,-999.9,-99.9,30.60,North,32767,-999.0,0.0,255,-99.99,,,0.00,Wunderground v.1.15,2013-01-21 14:49:00,
2013-01-21 06:54:00,-999.9,-99.9,30.60,North,32767,-999.0,0.0,255,-99.99,,,0.00,Wunderground v.1.15,2013-01-21 14:54:00,
2013-01-21 07:01:00,-999.9,-99.9,30.60,North,32767,-999.0,0.0,255,-99.99,,,0.00,Wunderground v.1.15,2013-01-21 15:01:00,
2013-01-21 07:07:00,-999.9,-99.9,30.60,North,32767,-999.0,0.0,255,-99.99,,,0.00,Wunderground v.1.15,2013-01-21 15:07:00,
2013-01-21 07:12:00,-999.9,-99.9,30.61,North,32767,-999.0,0.0,255,-99.99,,,0.00,Wunderground v.1.15,2013-01-21 15:12:00,
2013-01-21 07:18:00,-999.9,-99.9,30.61,North,32767,-999.0,0.0,255,-99.99,,,0.00,Wunderground v.1.15,2013-01-21 15:18:00,
2013-01-21 07:24:00,-999.9,-99.9,30.61,North,32767,-999.0,0.0,255,-99.99,,,0.00,Wunderground v.1.15,2013-01-21 15:24:00,
2013-01-21 07:29:00,-999.9,-99.9,30.61,North,32767,-999.0,0.0,255,-99.99,,,0.00,Wunderground v.1.15,2013-01-21 15:29:00,
2013-01-21 07:36:00,-999.9,-99.9,30.61,North,32767,-999.0,0.0,255,-99.99,,,0.00,Wunderground v.1.15,2013-01-21 15:36:00,
2013-01-21 07:41:00,-999.9,-99.9,30.61,North,32767,-999.0,0.0,255,-99.99,,,0.00,Wunderground v.1.15,2013-01-21 15:41:00,
2013-01-21 07:46:00,-999.9,-99.9,30.61,North,32767,-999.0,0.0,255,-99.99,,,0.00,Wunderground v.1.15,2013-01-21 15:46:00,
2013-01-21 07:52:00,13.0,10.9,30.62,West,259,0.0,0.0,91,0.00,,,0.00,Wunderground v.1.15,2013-01-21 15:52:00,
2013-01-21 07:58:00,13.6,11.2,30.62,West,259,0.0,0.0,90,0.00,,,0.00,Wunderground v.1.15,2013-01-21 15:58:00,
2013-01-21 08:03:00,13.4,10.5,30.63,West,264,0.0,0.0,88,0.00,,,0.00,Wunderground v.1.15,2013-01-21 16:03:00,
2013-01-21 08:09:00,13.1,10.0,30.63,WSW,248,0.0,0.0,87,0.00,,,0.00,Wunderground v.1.15,2013-01-21 16:09:00,
2013-01-21 08:15:00,13.1,9.7,30.63,WSW,257,0.0,0.0,86,0.00,,,0.00,Wunderground v.1.15,2013-01-21 16:15:00,
2013-01-21 08:20:00,13.5,10.4,30.64,WSW,257,0.0,0.0,87,0.00,,,0.00,Wunderground v.1.15,2013-01-21 16:20:00,
2013-01-21 08:26:00,14.7,11.5,30.64,WSW,256,0.0,0.0,87,0.00,,,0.00,Wunderground v.1.15,2013-01-21 16:26:00,
2013-01-21 08:31:00,15.6,12.4,30.65,WSW,257,0.0,0.0,87,0.00,,,0.00,Wunderground v.1.15,2013-01-21 16:31:00,
2013-01-21 08:36:00,17.2,14.0,30.65,WSW,256,0.0,0.0,87,0.00,,,0.00,Wunderground v.1.15,2013-01-21 16:36:00,
2013-01-21 08:42:00,19.8,16.0,30.65,WSW,256,0.0,0.0,85,0.00,,,0.00,Wunderground v.1.15,2013-01-21 16:42:00,
2013-01-21 08:48:00,19.4,14.5,30.66,WSW,257,0.0,0.0,81,0.00,,,0.00,Wunderground v.1.15,2013-01-21 16:48:00,
2013-01-21 08:53:00,19.5,14.9,30.66,WSW,256,0.0,0.0,82,0.00,,,0.00,Wunderground v.1.15,2013-01-21 16:53:00,
2013-01-21 08:59:00,19.8,14.9,30.66,WSW,256,0.0,0.0,81,0.00,,,0.00,Wunderground v.1.15,2013-01-21 16:59:00,
2013-01-21 09:04:00,21.2,16.3,30.66,WSW,257,0.0,0.0,81,0.00,,,0.00,Wunderground v.1.15,2013-01-21 17:04:00,
2013-01-21 09:10:00,22.1,16.9,30.66,WSW,256,0.0,0.0,80,0.00,,,0.00,Wunderground v.1.15,2013-01-21 17:10:00,
2013-01-21 09:15:00,22.6,16.8,30.67,WSW,256,0.0,0.0,78,0.00,,,0.00,Wunderground v.1.15,2013-01-21 17:15:00,
2013-01-21 09:21:00,23.3,17.5,30.67,WSW,257,0.0,0.0,78,0.00,,,0.00,Wunderground v.1.15,2013-01-21 17:21:00,
2013-01-21 09:26:00,24.0,17.5,30.67,SW,219,0.0,1.0,76,0.00,,,0.00,Wunderground v.1.15,2013-01-21 17:26:00,
2013-01-21 09:32:00,25.4,18.3,30.67,WSW,244,0.0,0.0,74,0.00,,,0.00,Wunderground v.1.15,2013-01-21 17:32:00,
2013-01-21 09:38:00,25.0,17.2,30.67,WSW,243,0.0,1.0,72,0.00,,,0.00,Wunderground v.1.15,2013-01-21 17:38:00,
2013-01-21 09:43:00,25.3,17.5,30.68,SSE,155,0.0,1.0,72,0.00,,,0.00,Wunderground v.1.15,2013-01-21 17:43:00,
2013-01-21 09:48:00,26.2,18.4,30.68,ENE,75,0.0,2.0,72,0.00,,,0.00,Wunderground v.1.15,2013-01-21 17:48:00,
2013-01-21 09:54:00,25.0,17.2,30.68,NNW,342,1.0,2.0,72,0.00,,,0.00,Wunderground v.1.15,2013-01-21 17:54:00,
2013-01-21 10:00:00,24.8,17.1,30.68,NE,49,1.0,1.0,72,0.00,,,0.00,Wunderground v.1.15,2013-01-21 18:00:00,
2013-01-21 10:05:00,25.1,17.3,30.68,NE,50,1.0,3.0,72,0.00,,,0.00,Wunderground v.1.15,2013-01-21 18:05:00,
2013-01-21 10:11:00,25.3,17.2,30.68,ENE,65,2.0,3.0,71,0.00,,,0.00,Wunderground v.1.15,2013-01-21 18:11:00,
2013-01-21 10:17:00,25.4,17.3,30.68,ENE,57,2.0,4.0,71,0.00,,,0.00,Wunderground v.1.15,2013-01-21 18:17:00,
2013-01-21 10:23:00,25.7,17.3,30.68,SSE,167,2.0,3.0,70,0.00,,,0.00,Wunderground v.1.15,2013-01-21 18:23:00,
2013-01-21 10:29:00,26.1,17.3,30.68,NE,41,2.0,3.0,69,0.00,,,0.00,Wunderground v.1.15,2013-01-21 18:29:00,
2013-01-21 10:34:00,26.3,17.5,30.68,NE,56,1.0,2.0,69,0.00,,,0.00,Wunderground v.1.15,2013-01-21 18:34:00,
2013-01-21 10:40:00,26.8,17.3,30.67,East,79,1.0,2.0,67,0.00,,,0.00,Wunderground v.1.15,2013-01-21 18:40:00,
2013-01-21 10:46:00,26.9,17.4,30.67,NE,52,2.0,4.0,67,0.00,,,0.00,Wunderground v.1.15,2013-01-21 18:46:00,
2013-01-21 10:51:00,27.0,17.5,30.66,ENE,72,2.0,3.0,67,0.00,,,0.00,Wunderground v.1.15,2013-01-21 18:51:00,
2013-01-21 10:56:00,27.2,17.3,30.66,NE,53,2.0,5.0,66,0.00,,,0.00,Wunderground v.1.15,2013-01-21 18:56:00,
2013-01-21 11:02:00,27.7,17.8,30.66,NE,46,3.0,4.0,66,0.00,,,0.00,Wunderground v.1.15,2013-01-21 19:02:00,
2013-01-21 11:08:00,28.1,17.8,30.65,ENE,68,3.0,4.0,65,0.00,,,0.00,Wunderground v.1.15,2013-01-21 19:08:00,
2013-01-21 11:14:00,28.6,18.0,30.65,NNE,28,2.0,5.0,64,0.00,,,0.00,Wunderground v.1.15,2013-01-21 19:14:00,
2013-01-21 11:19:00,28.7,17.7,30.65,NE,39,2.0,5.0,63,0.00,,,0.00,Wunderground v.1.15,2013-01-21 19:19:00,
2013-01-21 11:25:00,29.0,17.6,30.64,East,93,3.0,3.0,62,0.00,,,0.00,Wunderground v.1.15,2013-01-21 19:25:00,
2013-01-21 11:30:00,29.2,17.8,30.64,NE,55,2.0,3.0,62,0.00,,,0.00,Wunderground v.1.15,2013-01-21 19:30:00,
2013-01-21 11:36:00,29.6,17.8,30.63,NE,37,2.0,4.0,61,0.00,,,0.00,Wunderground v.1.15,2013-01-21 19:36:00,
2013-01-21 11:41:00,29.9,17.7,30.62,SSE,167,2.0,3.0,60,0.00,,,0.00,Wunderground v.1.15,2013-01-21 19:41:00,
2013-01-21 11:47:00,30.6,17.6,30.62,SE,128,2.0,3.0,58,0.00,,,0.00,Wunderground v.1.15,2013-01-21 19:47:00,
2013-01-21 11:52:00,31.2,18.1,30.61,WSW,240,1.0,2.0,58,0.00,,,0.00,Wunderground v.1.15,2013-01-21 19:52:00,
2013-01-21 11:58:00,31.3,17.4,30.61,NE,35,1.0,3.0,56,0.00,,,0.00,Wunderground v.1.15,2013-01-21 19:58:00,
2013-01-21 12:04:00,31.1,17.6,30.61,NE,51,2.0,4.0,57,0.00,,,0.00,Wunderground v.1.15,2013-01-21 20:04:00,
2013-01-21 12:09:00,31.2,17.7,30.60,NE,44,2.0,4.0,57,0.00,,,0.00,Wunderground v.1.15,2013-01-21 20:09:00,
2013-01-21 12:15:00,31.5,18.0,30.60,NNE,32,2.0,3.0,57,0.00,,,0.00,Wunderground v.1.15,2013-01-21 20:15:00,
2013-01-21 12:20:00,31.7,17.8,30.60,NW,321,2.0,2.0,56,0.00,,,0.00,Wunderground v.1.15,2013-01-21 20:20:00,
2013-01-21 12:26:00,32.6,18.2,30.59,North,3,1.0,2.0,55,0.00,,,0.00,Wunderground v.1.15,2013-01-21 20:26:00,
2013-01-21 12:31:00,32.9,18.1,30.59,NNW,348,2.0,5.0,54,0.00,,,0.00,Wunderground v.1.15,2013-01-21 20:31:00,
2013-01-21 12:37:00,33.1,18.2,30.58,SSE,147,2.0,5.0,54,0.00,,,0.00,Wunderground v.1.15,2013-01-21 20:37:00,
2013-01-21 12:43:00,33.1,17.8,30.58,East,82,2.0,3.0,53,0.00,,,0.00,Wunderground v.1.15,2013-01-21 20:43:00,
2013-01-21 12:48:00,33.1,18.2,30.58,NNE,30,2.0,5.0,54,0.00,,,0.00,Wunderground v.1.15,2013-01-21 20:48:00,
2013-01-21 12:54:00,33.5,18.2,30.57,ENE,66,2.0,4.0,53,0.00,,,0.00,Wunderground v.1.15,2013-01-21 20:54:00,
2013-01-21 12:59:00,33.7,17.9,30.57,ESE,103,2.0,4.0,52,0.00,,,0.00,Wunderground v.1.15,2013-01-21 20:59:00,
2013-01-21 13:05:00,34.1,18.3,30.57,North,354,2.0,3.0,52,0.00,,,0.00,Wunderground v.1.15,2013-01-21 21:05:00,
2013-01-21 13:11:00,34.5,18.2,30.56,NNE,17,2.0,4.0,51,0.00,,,0.00,Wunderground v.1.15,2013-01-21 21:11:00,
2013-01-21 13:16:00,34.8,18.5,30.56,NE,45,3.0,6.0,51,0.00,,,0.00,Wunderground v.1.15,2013-01-21 21:16:00,
2013-01-21 13:22:00,34.7,17.9,30.55,NNW,331,3.0,4.0,50,0.00,,,0.00,Wunderground v.1.15,2013-01-21 21:22:00,
2013-01-21 13:28:00,35.3,18.5,30.55,ENE,60,3.0,5.0,50,0.00,,,0.00,Wunderground v.1.15,2013-01-21 21:28:00,
2013-01-21 13:34:00,35.3,18.0,30.55,NE,46,4.0,4.0,49,0.00,,,0.00,Wunderground v.1.15,2013-01-21 21:34:00,
2013-01-21 13:39:00,35.4,18.1,30.54,North,359,3.0,4.0,49,0.00,,,0.00,Wunderground v.1.15,2013-01-21 21:39:00,
2013-01-21 13:45:00,35.5,18.2,30.54,North,6,4.0,6.0,49,0.00,,,0.00,Wunderground v.1.15,2013-01-21 21:45:00,
2013-01-21 13:50:00,35.8,18.5,30.54,NE,45,3.0,4.0,49,0.00,,,0.00,Wunderground v.1.15,2013-01-21 21:50:00,
2013-01-21 13:56:00,36.1,18.3,30.53,NE,56,3.0,5.0,48,0.00,,,0.00,Wunderground v.1.15,2013-01-21 21:56:00,
2013-01-21 14:02:00,36.6,18.2,30.53,SE,134,2.0,3.0,47,0.00,,,0.00,Wunderground v.1.15,2013-01-21 22:02:00,
2013-01-21 14:07:00,36.9,18.0,30.53,East,86,2.0,5.0,46,0.00,,,0.00,Wunderground v.1.15,2013-01-21 22:07:00,
2013-01-21 14:13:00,36.7,18.3,30.53,NW,319,3.0,3.0,47,0.00,,,0.00,Wunderground v.1.15,2013-01-21 22:13:00,
2013-01-21 14:18:00,37.1,18.2,30.52,ESE,105,2.0,3.0,46,0.00,,,0.00,Wunderground v.1.15,2013-01-21 22:18:00,
2013-01-21 14:24:00,37.5,18.6,30.52,ENE,70,2.0,3.0,46,0.00,,,0.00,Wunderground v.1.15,2013-01-21 22:24:00,
2013-01-21 14:30:00,37.1,18.2,30.52,East,80,2.0,2.0,46,0.00,,,0.00,Wunderground v.1.15,2013-01-21 22:30:00,
2013-01-21 14:35:00,37.3,17.9,30.52,NNE,18,2.0,5.0,45,0.00,,,0.00,Wunderground v.1.15,2013-01-21 22:35:00,
2013-01-21 14:41:00,37.4,18.0,30.52,NNE,30,3.0,5.0,45,0.00,,,0.00,Wunderground v.1.15,2013-01-21 22:41:00,
2013-01-21 14:46:00,37.5,18.1,30.52,NNE,15,3.0,5.0,45,0.00,,,0.00,Wunderground v.1.15,2013-01-21 22:46:00,
2013-01-21 14:52:00,37.6,18.2,30.52,ENE,59,3.0,3.0,45,0.00,,,0.00,Wunderground v.1.15,2013-01-21 22:52:00,
2013-01-21 14:57:00,37.7,17.7,30.52,North,359,2.0,3.0,44,0.00,,,0.00,Wunderground v.1.15,2013-01-21 22:57:00,
2013-01-21 15:03:00,37.7,17.7,30.52,NNW,344,1.0,2.0,44,0.00,,,0.00,Wunderground v.1.15,2013-01-21 23:03:00,
2013-01-21 15:09:00,38.1,18.1,30.52,NNE,18,1.0,5.0,44,0.00,,,0.00,Wunderground v.1.15,2013-01-21 23:09:00,
2013-01-21 15:14:00,38.0,18.0,30.52,NW,326,2.0,4.0,44,0.00,,,0.00,Wunderground v.1.15,2013-01-21 23:14:00,
2013-01-21 15:20:00,37.9,17.9,30.51,NNE,29,2.0,3.0,44,0.00,,,0.00,Wunderground v.1.15,2013-01-21 23:20:00,
2013-01-21 15:25:00,37.7,17.7,30.51,NNE,32,3.0,3.0,44,0.00,,,0.00,Wunderground v.1.15,2013-01-21 23:25:00,
2013-01-21 15:31:00,37.7,17.7,30.51,NE,39,2.0,4.0,44,0.00,,,0.00,Wunderground v.1.15,2013-01-21 23:31:00,
2013-01-21 15:37:00,37.7,17.7,30.51,NE,45,3.0,5.0,44,0.00,,,0.00,Wunderground v.1.15,2013-01-21 23:37:00,
2013-01-21 15:42:00,37.6,17.6,30.50,NE,36,4.0,4.0,44,0.00,,,0.00,Wunderground v.1.15,2013-01-21 23:42:00,
2013-01-21 15:48:00,37.6,17.6,30.50,NNE,27,3.0,4.0,44,0.00,,,0.00,Wunderground v.1.15,2013-01-21 23:48:00,
2013-01-21 15:54:00,37.4,17.4,30.50,NE,44,3.0,4.0,44,0.00,,,0.00,Wunderground v.1.15,2013-01-21 23:54:00,
2013-01-21 15:59:00,37.5,17.5,30.50,NE,51,3.0,4.0,44,0.00,,,0.00,Wunderground v.1.15,2013-01-21 23:59:00,
2013-01-21 16:05:00,37.4,17.4,30.50,NE,39,3.0,4.0,44,0.00,,,0.00,Wunderground v.1.15,2013-01-22 00:05:00,
2013-01-21 16:10:00,37.3,17.4,30.50,NE,42,3.0,3.0,44,0.00,,,0.00,Wunderground v.1.15,2013-01-22 00:10:00,
2013-01-21 16:16:00,37.2,17.3,30.50,NE,53,3.0,4.0,44,0.00,,,0.00,Wunderground v.1.15,2013-01-22 00:16:00,
2013-01-21 16:21:00,37.1,17.2,30.49,NE,35,3.0,4.0,44,0.00,,,0.00,Wunderground v.1.15,2013-01-22 00:21:00,
2013-01-21 16:27:00,36.8,16.9,30.49,NE,42,4.0,5.0,44,0.00,,,0.00,Wunderground v.1.15,2013-01-22 00:27:00,
2013-01-21 16:33:00,36.5,17.1,30.49,NE,37,4.0,4.0,45,0.00,,,0.00,Wunderground v.1.15,2013-01-22 00:33:00,
2013-01-21 16:38:00,36.2,16.9,30.49,NE,34,3.0,4.0,45,0.00,,,0.00,Wunderground v.1.15,2013-01-22 00:38:00,
2013-01-21 16:44:00,35.7,16.4,30.49,NNE,31,2.0,3.0,45,0.00,,,0.00,Wunderground v.1.15,2013-01-22 00:44:00,
2013-01-21 16:50:00,35.1,16.4,30.49,NNE,30,2.0,2.0,46,0.00,,,0.00,Wunderground v.1.15,2013-01-22 00:50:00,
2013-01-21 16:55:00,34.5,16.3,30.49,NNE,23,2.0,2.0,47,0.00,,,0.00,Wunderground v.1.15,2013-01-22 00:55:00,
2013-01-21 17:00:00,34.0,15.9,30.50,NNE,18,2.0,2.0,47,0.00,,,0.00,Wunderground v.1.15,2013-01-22 01:00:00,
2013-01-21 17:05:00,33.7,16.1,30.50,NNE,22,2.0,2.0,48,0.00,,,0.00,Wunderground v.1.15,2013-01-22 01:05:00,
2013-01-21 17:10:00,33.5,15.9,30.50,NNE,17,2.0,2.0,48,0.00,,,0.00,Wunderground v.1.15,2013-01-22 01:10:00,
2013-01-21 17:16:00,33.2,16.1,30.50,North,3,2.0,2.0,49,0.00,,,0.00,Wunderground v.1.15,2013-01-22 01:16:00,
2013-01-21 17:22:00,33.0,15.9,30.50,North,359,1.0,2.0,49,0.00,,,0.00,Wunderground v.1.15,2013-01-22 01:22:00,
2013-01-21 17:27:00,32.7,15.6,30.50,NNE,31,2.0,3.0,49,0.00,,,0.00,Wunderground v.1.15,2013-01-22 01:27:00,
2013-01-21 17:33:00,31.7,15.2,30.50,NNE,21,2.0,3.0,50,0.00,,,0.00,Wunderground v.1.15,2013-01-22 01:33:00,
2013-01-21 17:39:00,31.2,15.2,30.50,North,9,2.0,3.0,51,0.00,,,0.00,Wunderground v.1.15,2013-01-22 01:39:00,
2013-01-21 17:44:00,30.8,15.2,30.50,NNE,14,3.0,3.0,52,0.00,,,0.00,Wunderground v.1.15,2013-01-22 01:44:00,
2013-01-21 17:50:00,30.4,15.3,30.50,NE,34,3.0,5.0,53,0.00,,,0.00,Wunderground v.1.15,2013-01-22 01:50:00,
2013-01-21 17:55:00,29.8,15.2,30.50,NNE,24,3.0,5.0,54,0.00,,,0.00,Wunderground v.1.15,2013-01-22 01:55:00,
2013-01-21 18:00:00,29.5,15.7,30.50,NNE,17,3.0,3.0,56,0.00,,,0.00,Wunderground v.1.15,2013-01-22 02:00:00,
2013-01-21 18:06:00,29.3,15.5,30.50,NNE,24,2.0,3.0,56,0.00,,,0.00,Wunderground v.1.15,2013-01-22 02:06:00,
2013-01-21 18:12:00,29.0,15.7,30.51,NNE,24,2.0,2.0,57,0.00,,,0.00,Wunderground v.1.15,2013-01-22 02:12:00,
2013-01-21 18:17:00,28.6,15.3,30.51,NNE,17,2.0,2.0,57,0.00,,,0.00,Wunderground v.1.15,2013-01-22 02:17:00,
2013-01-21 18:23:00,28.6,15.7,30.51,NNE,18,2.0,2.0,58,0.00,,,0.00,Wunderground v.1.15,2013-01-22 02:23:00,
2013-01-21 18:28:00,28.3,15.4,30.51,NNE,19,2.0,2.0,58,0.00,,,0.00,Wunderground v.1.15,2013-01-22 02:28:00,
2013-01-21 18:34:00,28.2,15.7,30.51,NNE,16,1.0,1.0,59,0.00,,,0.00,Wunderground v.1.15,2013-01-22 02:34:00,
2013-01-21 18:40:00,28.0,15.9,30.51,NW,322,1.0,1.0,60,0.00,,,0.00,Wunderground v.1.15,2013-01-22 02:40:00,
2013-01-21 18:45:00,27.1,15.0,30.51,West,266,1.0,2.0,60,0.00,,,0.00,Wunderground v.1.15,2013-01-22 02:45:00,
2013-01-21 18:51:00,26.4,14.4,30.51,WSW,255,2.0,2.0,60,0.00,,,0.00,Wunderground v.1.15,2013-01-22 02:51:00,
2013-01-21 18:56:00,25.3,14.5,30.52,WSW,248,2.0,2.0,63,0.00,,,0.00,Wunderground v.1.15,2013-01-22 02:56:00,
2013-01-21 19:02:00,25.7,15.2,30.52,WSW,248,1.0,2.0,64,0.00,,,0.00,Wunderground v.1.15,2013-01-22 03:02:00,
2013-01-21 19:08:00,25.4,14.5,30.52,WSW,254,1.0,2.0,63,0.00,,,0.00,Wunderground v.1.15,2013-01-22 03:08:00,
2013-01-21 19:13:00,25.1,14.6,30.52,WSW,253,1.0,1.0,64,0.00,,,0.00,Wunderground v.1.15,2013-01-22 03:13:00,
2013-01-21 19:18:00,24.9,14.8,30.52,WSW,241,1.0,1.0,65,0.00,,,0.00,Wunderground v.1.15,2013-01-22 03:18:00,
2013-01-21 19:24:00,25.2,15.1,30.51,WSW,243,1.0,1.0,65,0.00,,,0.00,Wunderground v.1.15,2013-01-22 03:24:00,
2013-01-21 19:29:00,25.7,15.6,30.51,WSW,243,0.0,1.0,65,0.00,,,0.00,Wunderground v.1.15,2013-01-22 03:29:00,
2013-01-21 19:35:00,26.1,15.6,30.52,WSW,245,0.0,0.0,64,0.00,,,0.00,Wunderground v.1.15,2013-01-22 03:35:00,
2013-01-21 19:40:00,25.6,15.1,30.52,WSW,245,0.0,0.0,64,0.00,,,0.00,Wunderground v.1.15,2013-01-22 03:40:00,
2013-01-21 19:46:00,25.7,15.6,30.52,WSW,245,0.0,0.0,65,0.00,,,0.00,Wunderground v.1.15,2013-01-22 03:46:00,
2013-01-21 19:52:00,25.5,15.4,30.52,WSW,245,0.0,0.0,65,0.00,,,0.00,Wunderground v.1.15,2013-01-22 03:52:00,
2013-01-21 19:57:00,25.9,15.7,30.52,WSW,245,0.0,0.0,65,0.00,,,0.00,Wunderground v.1.15,2013-01-22 03:57:00,
2013-01-21 20:03:00,25.9,15.4,30.52,WSW,245,0.0,0.0,64,0.00,,,0.00,Wunderground v.1.15,2013-01-22 04:03:00,
2013-01-21 20:08:00,25.4,15.3,30.53,WSW,245,0.0,0.0,65,0.00,,,0.00,Wunderground v.1.15,2013-01-22 04:08:00,
2013-01-21 20:14:00,25.1,15.3,30.53,WSW,245,0.0,0.0,66,0.00,,,0.00,Wunderground v.1.15,2013-01-22 04:14:00,
2013-01-21 20:19:00,25.1,15.7,30.53,WSW,245,0.0,0.0,67,0.00,,,0.00,Wunderground v.1.15,2013-01-22 04:19:00,
2013-01-21 20:25:00,25.5,16.1,30.53,WSW,245,0.0,0.0,67,0.00,,,0.00,Wunderground v.1.15,2013-01-22 04:25:00,
2013-01-21 20:31:00,25.8,16.0,30.53,WSW,245,0.0,0.0,66,0.00,,,0.00,Wunderground v.1.15,2013-01-22 04:31:00,
2013-01-21 20:36:00,25.6,15.8,30.53,West,262,0.0,1.0,66,0.00,,,0.00,Wunderground v.1.15,2013-01-22 04:36:00,
2013-01-21 20:41:00,25.1,15.3,30.53,NNW,337,1.0,1.0,66,0.00,,,0.00,Wunderground v.1.15,2013-01-22 04:41:00,
2013-01-21 20:47:00,24.3,14.9,30.53,NNW,336,1.0,1.0,67,0.00,,,0.00,Wunderground v.1.15,2013-01-22 04:47:00,
2013-01-21 20:53:00,23.4,14.4,30.53,NNW,336,1.0,2.0,68,0.00,,,0.00,Wunderground v.1.15,2013-01-22 04:53:00,
2013-01-21 20:58:00,22.7,14.4,30.53,NNW,333,2.0,2.0,70,0.00,,,0.00,Wunderground v.1.15,2013-01-22 04:58:00,
2013-01-21 21:00:00,22.5,14.2,30.53,NNW,333,2.0,2.0,70,0.00,,,0.00,Wunderground v.1.15,2013-01-22 05:00:00,
2013-01-21 21:01:00,22.4,14.1,30.53,NNW,333,2.0,2.0,70,0.00,,,0.00,Wunderground v.1.15,2013-01-22 05:01:00,
2013-01-21 21:06:00,22.1,14.1,30.53,NNW,333,2.0,2.0,71,0.00,,,0.00,Wunderground v.1.15,2013-01-22 05:06:00,
2013-01-21 21:10:00,21.9,14.3,30.53,NNW,333,1.0,1.0,72,0.00,,,0.00,Wunderground v.1.15,2013-01-22 05:10:00,
2013-01-21 21:16:00,22.0,14.3,30.54,NNW,330,1.0,1.0,72,0.00,,,0.00,Wunderground v.1.15,2013-01-22 05:16:00,
2013-01-21 21:22:00,21.7,14.1,30.54,WNW,286,1.0,1.0,72,0.00,,,0.00,Wunderground v.1.15,2013-01-22 05:22:00,
2013-01-21 21:27:00,21.3,14.0,30.54,WNW,286,0.0,1.0,73,0.00,,,0.00,Wunderground v.1.15,2013-01-22 05:27:00,
2013-01-21 21:33:00,21.2,13.9,30.54,WNW,286,1.0,1.0,73,0.00,,,0.00,Wunderground v.1.15,2013-01-22 05:33:00,
2013-01-21 21:39:00,21.1,14.1,30.55,WNW,286,1.0,1.0,74,0.00,,,0.00,Wunderground v.1.15,2013-01-22 05:39:00,
2013-01-21 21:44:00,20.4,12.8,30.54,West,272,1.0,2.0,72,0.00,,,0.00,Wunderground v.1.15,2013-01-22 05:44:00,
2013-01-21 21:50:00,19.8,13.2,30.55,WNW,287,2.0,2.0,75,0.00,,,0.00,Wunderground v.1.15,2013-01-22 05:50:00,
2013-01-21 21:55:00,20.0,13.6,30.55,WNW,283,1.0,2.0,76,0.00,,,0.00,Wunderground v.1.15,2013-01-22 05:55:00,
2013-01-21 22:00:00,19.9,13.3,30.55,West,273,1.0,1.0,75,0.00,,,0.00,Wunderground v.1.15,2013-01-22 06:00:00,
2013-01-21 22:06:00,20.1,13.7,30.55,West,281,1.0,2.0,76,0.00,,,0.00,Wunderground v.1.15,2013-01-22 06:06:00,
2013-01-21 22:11:00,20.4,14.0,30.55,WNW,282,1.0,1.0,76,0.00,,,0.00,Wunderground v.1.15,2013-01-22 06:11:00,
2013-01-21 22:16:00,20.9,14.5,30.55,WNW,293,1.0,1.0,76,0.00,,,0.00,Wunderground v.1.15,2013-01-22 06:16:00,
2013-01-21 22:22:00,21.0,14.3,30.55,WNW,284,1.0,1.0,75,0.00,,,0.00,Wunderground v.1.15,2013-01-22 06:22:00,
2013-01-21 22:27:00,21.1,14.7,30.55,WNW,285,1.0,1.0,76,0.00,,,0.00,Wunderground v.1.15,2013-01-22 06:27:00,
2013-01-21 22:33:00,21.1,14.4,30.55,WNW,286,0.0,1.0,75,0.00,,,0.00,Wunderground v.1.15,2013-01-22 06:33:00,
2013-01-21 22:39:00,21.0,14.6,30.56,WNW,286,0.0,1.0,76,0.00,,,0.00,Wunderground v.1.15,2013-01-22 06:39:00,
2013-01-21 22:44:00,21.2,14.8,30.55,WNW,285,0.0,1.0,76,0.00,,,0.00,Wunderground v.1.15,2013-01-22 06:44:00,
2013-01-21 22:50:00,21.4,15.0,30.56,WNW,286,0.0,0.0,76,0.00,,,0.00,Wunderground v.1.15,2013-01-22 06:50:00,
2013-01-21 22:55:00,21.2,14.5,30.55,WNW,285,1.0,1.0,75,0.00,,,0.00,Wunderground v.1.15,2013-01-22 06:55:00,
2013-01-21 23:00:00,20.5,13.8,30.55,WNW,284,1.0,2.0,75,0.00,,,0.00,Wunderground v.1.15,2013-01-22 07:00:00,
2013-01-21 23:05:00,20.2,14.1,30.55,WNW,286,1.0,2.0,77,0.00,,,0.00,Wunderground v.1.15,2013-01-22 07:05:00,
2013-01-21 23:11:00,20.0,13.6,30.55,West,277,1.0,2.0,76,0.00,,,0.00,Wunderground v.1.15,2013-01-22 07:11:00,
2013-01-21 23:16:00,19.6,13.6,30.55,West,277,1.0,2.0,77,0.00,,,0.00,Wunderground v.1.15,2013-01-22 07:16:00,
2013-01-21 23:22:00,19.5,13.8,30.55,West,281,1.0,2.0,78,0.00,,,0.00,Wunderground v.1.15,2013-01-22 07:22:00,
2013-01-21 23:28:00,18.5,12.2,30.55,West,266,2.0,2.0,76,0.00,,,0.00,Wunderground v.1.15,2013-01-22 07:28:00,
2013-01-21 23:33:00,18.3,12.9,30.55,West,263,2.0,2.0,79,0.00,,,0.00,Wunderground v.1.15,2013-01-22 07:33:00,
2013-01-21 23:39:00,17.8,11.8,30.55,West,260,1.0,2.0,77,0.00,,,0.00,Wunderground v.1.15,2013-01-22 07:39:00,
2013-01-21 23:45:00,17.1,12.0,30.55,West,260,1.0,2.0,80,0.00,,,0.00,Wunderground v.1.15,2013-01-22 07:45:00,
2013-01-21 23:50:00,17.2,11.8,30.55,West,270,1.0,1.0,79,0.00,,,0.00,Wunderground v.1.15,2013-01-22 07:50:00,
2013-01-21 23:56:00,16.8,11.7,30.55,West,271,0.0,1.0,80,0.00,,,0.00,Wunderground v.1.15,2013-01-22 07:56:00,